Time;durP1;ratioP1;P1;durP2;ratioP2;P2;SDS_P1;SDS_P2;PMS_P1;PMS_P2;Temp;Humidity;BMP_temperature;BMP_pressure;BME280_temperature;BME280_humidity;BME280_pressure;Samples;Min_cycle;Max_cycle;Signal;HPM_P1;HPM_P2
2021/01/22 00:02:08;;;;;;;29.02;15.30;;;;;;;5.47;65.55;98768.67;2111469;84;31352;-71
2021/01/22 00:05:11;;;;;;;41.42;18.92;;;;;;;5.55;65.40;98769.59;2082595;81;33143;-73
2021/01/22 00:08:13;;;;;;;36.00;18.42;;;;;;;5.61;65.47;98751.13;2100642;84;30138;-72
2021/01/22 00:15:50;;;;;;;28.05;11.55;;;;;;;5.73;65.10;98752.27;2076541;84;27843;-73
2021/01/22 00:18:52;;;;;;;19.55;10.15;;;;;;;5.75;64.86;98746.40;2105712;84;31174;-72
2021/01/22 00:21:54;;;;;;;20.27;12.15;;;;;;;5.78;64.48;98742.25;2081072;84;33662;-73
2021/01/22 00:24:56;;;;;;;17.50;8.93;;;;;;;5.83;64.33;98746.81;2106985;84;29271;-73
2021/01/22 00:27:57;;;;;;;18.15;9.00;;;;;;;5.87;64.38;98742.21;2106897;84;27739;-73
2021/01/22 00:30:59;;;;;;;22.07;10.05;;;;;;;5.95;64.22;98740.45;2141858;83;29842;-70
2021/01/22 00:34:01;;;;;;;24.25;10.20;;;;;;;5.99;63.85;98732.67;2143207;83;31211;-72
2021/01/22 00:37:04;;;;;;;20.00;9.18;;;;;;;6.02;64.12;98724.56;2121624;83;34143;-72
2021/01/22 00:40:07;;;;;;;28.67;13.30;;;;;;;6.01;63.61;98711.76;2143192;83;29015;-72
2021/01/22 00:43:09;;;;;;;21.25;10.63;;;;;;;5.97;63.93;98706.19;2138107;83;27759;-73
2021/01/22 00:46:11;;;;;;;23.83;11.78;;;;;;;5.93;63.79;98693.55;2116697;83;28875;-71
2021/01/22 00:49:13;;;;;;;20.00;9.83;;;;;;;5.87;64.18;98692.56;2132426;82;31104;-71
2021/01/22 00:52:16;;;;;;;27.52;11.55;;;;;;;5.81;63.83;98687.58;2107071;84;33190;-72
2021/01/22 00:55:18;;;;;;;21.35;10.30;;;;;;;5.74;64.33;98678.25;2107035;83;29165;-72
2021/01/22 00:58:20;;;;;;;21.87;11.45;;;;;;;5.69;64.55;98663.03;2134656;83;27683;-73
2021/01/22 01:01:21;;;;;;;26.95;11.88;;;;;;;5.63;64.59;98670.88;2106405;84;28840;-72
2021/01/22 01:04:23;;;;;;;29.35;12.28;;;;;;;5.55;64.77;98669.11;2106259;84;31150;-72
2021/01/22 01:07:25;;;;;;;25.57;12.43;;;;;;;5.48;64.99;98659.30;2107043;84;33132;-72
2021/01/22 01:10:27;;;;;;;23.62;10.95;;;;;;;5.40;65.22;98655.73;2106904;83;29244;-71
2021/01/22 01:13:29;;;;;;;22.25;11.18;;;;;;;5.33;65.38;98650.39;2111615;83;27787;-71
2021/01/22 01:16:31;;;;;;;20.90;10.63;;;;;;;5.27;65.61;98645.41;2142709;81;28844;-72
2021/01/22 01:19:33;;;;;;;24.00;10.80;;;;;;;5.21;65.79;98639.97;2131078;82;32618;-73
2021/01/22 01:22:35;;;;;;;21.57;11.03;;;;;;;5.17;65.89;98641.06;2128478;82;33122;-72
2021/01/22 01:25:37;;;;;;;25.02;14.05;;;;;;;5.14;66.09;98639.89;2146604;82;29168;-71
2021/01/22 01:28:39;;;;;;;21.27;10.90;;;;;;;5.11;66.24;98629.47;2145953;82;28174;-71
2021/01/22 01:31:41;;;;;;;22.90;12.37;;;;;;;5.09;66.38;98630.02;2131252;82;28837;-72
2021/01/22 01:34:42;;;;;;;20.08;11.93;;;;;;;5.09;66.53;98640.64;2146767;82;31273;-73
2021/01/22 01:37:44;;;;;;;25.02;11.53;;;;;;;5.09;66.70;98634.00;2146571;82;33042;-72
2021/01/22 01:40:47;;;;;;;31.05;12.45;;;;;;;5.10;66.78;98637.89;2110572;82;29161;-71
2021/01/22 01:43:49;;;;;;;28.45;12.18;;;;;;;5.15;66.87;98622.58;2144565;82;27964;-72
2021/01/22 01:46:51;;;;;;;25.90;9.63;;;;;;;5.20;66.98;98623.65;2145641;82;28873;-71
2021/01/22 01:49:53;;;;;;;16.12;9.20;;;;;;;5.23;66.99;98626.59;2145988;82;30956;-73
2021/01/22 01:52:54;;;;;;;15.35;8.75;;;;;;;5.25;67.03;98626.05;2124336;82;33199;-72
2021/01/22 01:55:56;;;;;;;17.60;9.60;;;;;;;5.28;66.99;98615.27;2110686;84;29417;-71
2021/01/22 01:58:59;;;;;;;16.57;9.38;;;;;;;5.28;67.07;98608.17;2113303;82;27730;-72
2021/01/22 02:02:02;;;;;;;19.85;9.43;;;;;;;5.28;67.14;98605.97;2144842;82;28898;-72
2021/01/22 02:05:05;;;;;;;19.57;10.53;;;;;;;5.29;67.18;98609.02;2146706;82;32227;-73
2021/01/22 02:08:07;;;;;;;19.30;11.80;;;;;;;5.29;67.20;98608.56;2123195;82;33121;-72
2021/01/22 02:11:10;;;;;;;23.57;13.78;;;;;;;5.33;67.28;98601.27;2110604;84;29233;-72
2021/01/22 02:14:12;;;;;;;19.80;9.58;;;;;;;5.34;67.23;98599.00;2110264;84;27737;-73
2021/01/22 02:17:14;;;;;;;13.28;8.48;;;;;;;5.33;67.28;98594.14;2116521;82;28901;-73
2021/01/22 02:20:44;;;;;;;15.75;8.50;;;;;;;5.31;67.27;98584.08;2093562;84;32547;-72
2021/01/22 02:23:47;;;;;;;17.45;8.95;;;;;;;5.28;67.32;98585.60;2108458;84;34077;-72
2021/01/22 02:27:07;;;;;;;16.93;8.63;;;;;;;5.26;67.34;98575.98;2088748;84;29186;-72
2021/01/22 02:30:10;;;;;;;18.35;8.98;;;;;;;5.22;67.42;98564.70;2077678;84;27653;-72
2021/01/22 02:33:13;;;;;;;20.23;9.75;;;;;;;5.17;67.51;98557.45;2080893;84;28816;-72
2021/01/22 02:36:19;;;;;;;19.67;9.70;;;;;;;5.13;67.52;98547.48;2110402;84;31161;-73
2021/01/22 02:39:23;;;;;;;19.70;9.58;;;;;;;5.15;67.61;98546.05;2097473;84;33101;-72
2021/01/22 02:42:26;;;;;;;13.30;7.30;;;;;;;5.17;67.65;98536.21;2059089;84;29246;-72
2021/01/22 02:45:29;;;;;;;22.07;12.18;;;;;;;5.19;67.65;98530.83;2076966;84;27624;-72
2021/01/22 02:48:30;;;;;;;20.70;11.05;;;;;;;5.21;67.68;98534.27;2076236;85;28846;-71
2021/01/22 02:51:32;;;;;;;20.50;10.00;;;;;;;5.24;67.73;98522.12;2073093;84;31212;-73
2021/01/22 02:54:34;;;;;;;23.07;10.93;;;;;;;5.22;67.71;98518.23;2110069;84;33557;-72
2021/01/22 02:57:43;;;;;;;20.10;10.60;;;;;;;5.21;67.68;98517.01;2076564;84;29365;-72
2021/01/22 03:00:49;;;;;;;16.75;9.83;;;;;;;5.21;67.62;98525.81;2087807;84;27723;-72
2021/01/22 03:04:07;;;;;;;20.15;10.75;;;;;;;5.20;67.65;98521.44;2082128;84;29756;-72
2021/01/22 03:07:12;;;;;;;20.75;10.68;;;;;;;5.17;67.62;98512.32;2056838;84;30353;-72
2021/01/22 03:10:21;;;;;;;17.40;9.85;;;;;;;5.13;67.61;98516.11;2081209;84;34044;-71
2021/01/22 03:13:25;;;;;;;18.10;9.40;;;;;;;5.08;67.48;98530.10;2102807;83;28960;-71
2021/01/22 03:16:26;;;;;;;22.90;12.60;;;;;;;5.00;67.58;98520.76;2075705;85;27856;-71
2021/01/22 03:19:28;;;;;;;20.17;11.45;;;;;;;4.95;67.71;98517.98;2102977;82;29021;-72
2021/01/22 03:22:29;;;;;;;24.20;11.95;;;;;;;4.88;67.74;98527.23;2125262;82;31090;-72
2021/01/22 03:25:31;;;;;;;26.17;15.93;;;;;;;4.80;67.76;98540.92;2113591;82;34031;-71
2021/01/22 03:28:33;;;;;;;27.20;15.35;;;;;;;4.71;67.95;98535.64;2115402;82;29306;-72
2021/01/22 03:31:35;;;;;;;27.77;14.35;;;;;;;4.64;68.05;98536.90;2119512;82;27659;-72
2021/01/22 03:34:37;;;;;;;26.87;14.68;;;;;;;4.56;68.24;98538.64;2146747;81;29761;-72
2021/01/22 03:37:38;;;;;;;24.25;13.00;;;;;;;4.54;68.46;98548.02;2138233;82;31134;-72
2021/01/22 03:40:40;;;;;;;24.98;13.98;;;;;;;4.56;68.50;98538.16;2110717;82;34048;-72
2021/01/22 03:43:42;;;;;;;23.40;14.10;;;;;;;4.59;68.69;98539.80;2122350;82;29235;-72
2021/01/22 03:46:44;;;;;;;24.67;13.68;;;;;;;4.60;68.70;98541.52;2110748;84;27690;-73
2021/01/22 03:49:46;;;;;;;20.20;13.18;;;;;;;4.61;68.75;98533.95;2115043;82;29801;-73
2021/01/22 03:52:48;;;;;;;22.35;12.05;;;;;;;4.61;68.89;98518.50;2145968;82;31194;-73
2021/01/22 03:55:50;;;;;;;18.67;10.65;;;;;;;4.62;69.11;98517.11;2146725;82;33106;-73
2021/01/22 03:58:52;;;;;;;18.65;8.85;;;;;;;4.61;69.12;98510.54;2140859;82;29168;-70
2021/01/22 04:01:54;;;;;;;21.40;8.68;;;;;;;4.60;69.42;98508.83;2127396;82;27706;-72
2021/01/22 04:04:55;;;;;;;16.60;8.30;;;;;;;4.59;69.49;98493.85;2110196;84;28840;-72
2021/01/22 04:07:57;;;;;;;18.87;8.08;;;;;;;4.54;69.79;98494.11;2114334;82;31153;-71
2021/01/22 04:10:59;;;;;;;14.43;8.48;;;;;;;4.48;70.08;98499.28;2114559;82;34064;-69
2021/01/22 04:14:01;;;;;;;20.95;9.00;;;;;;;4.48;70.52;98498.41;2118318;82;30488;-71
2021/01/22 04:17:02;;;;;;;19.32;10.40;;;;;;;4.49;70.58;98471.82;2145825;82;28109;-72
2021/01/22 04:20:06;;;;;;;16.32;10.03;;;;;;;4.60;70.73;98478.33;2107059;82;29773;-72
2021/01/22 04:23:08;;;;;;;23.18;10.55;;;;;;;4.68;70.78;98460.21;2076346;85;31141;-72
2021/01/22 04:26:10;;;;;;;17.80;9.50;;;;;;;4.75;70.71;98468.68;2076280;85;32914;-73
2021/01/22 04:29:12;;;;;;;18.60;8.93;;;;;;;4.80;70.68;98460.84;2077358;84;30202;-72
2021/01/22 04:32:13;;;;;;;15.60;8.25;;;;;;;4.86;70.71;98460.97;2100544;84;27638;-71
2021/01/22 04:35:15;;;;;;;12.98;6.95;;;;;;;4.89;70.83;98460.80;2081027;84;28857;-67
2021/01/22 04:38:17;;;;;;;11.63;7.47;;;;;;;4.95;70.90;98445.87;2067697;84;31131;-69
2021/01/22 04:41:19;;;;;;;14.98;7.25;;;;;;;5.00;70.83;98461.05;2068108;84;34042;-70
2021/01/22 04:44:21;;;;;;;10.48;6.42;;;;;;;5.06;70.86;98459.00;2083678;84;28779;-72
2021/01/22 04:47:23;;;;;;;14.13;7.05;;;;;;;5.11;70.82;98456.46;2086114;84;27761;-72
2021/01/22 04:50:26;;;;;;;13.25;6.58;;;;;;;5.14;70.81;98448.78;2096637;84;28823;-72
2021/01/22 04:53:32;;;;;;;13.88;6.60;;;;;;;5.18;70.88;98439.70;2067679;86;31178;-71
2021/01/22 04:56:46;;;;;;;16.85;6.75;;;;;;;5.20;70.91;98444.46;2067674;86;33106;-71
2021/01/22 04:59:51;;;;;;;13.43;6.97;;;;;;;5.22;70.88;98430.63;2097969;84;29171;-73
2021/01/22 05:02:55;;;;;;;12.47;6.75;;;;;;;5.25;70.84;98430.91;2063600;85;27733;-72
2021/01/22 05:05:58;;;;;;;13.50;7.30;;;;;;;5.26;70.85;98440.59;2075228;84;29752;-72
2021/01/22 05:09:00;;;;;;;15.28;6.50;;;;;;;5.26;70.82;98433.95;2081995;84;31242;-72
2021/01/22 05:12:04;;;;;;;14.07;6.97;;;;;;;5.29;70.78;98428.02;2103922;84;33114;-72
2021/01/22 05:15:20;;;;;;;10.32;6.37;;;;;;;5.30;70.78;98423.06;2105051;84;29172;-71
2021/01/22 05:18:29;;;;;;;10.50;6.53;;;;;;;5.33;70.78;98420.72;2071211;85;27666;-72
2021/01/22 05:21:38;;;;;;;10.58;6.50;;;;;;;5.34;70.83;98414.47;2061024;84;28800;-72
2021/01/22 05:24:41;;;;;;;13.45;7.08;;;;;;;5.33;70.79;98420.23;2063231;84;31151;-72
2021/01/22 05:27:55;;;;;;;12.93;7.33;;;;;;;5.33;70.85;98417.58;2097362;84;33279;-71
2021/01/22 05:30:57;;;;;;;11.10;6.70;;;;;;;5.33;70.83;98409.61;2095153;84;29168;-72
2021/01/22 05:34:00;;;;;;;13.58;7.58;;;;;;;5.37;70.92;98415.62;2096370;84;28236;-72
2021/01/22 05:37:04;;;;;;;11.25;6.00;;;;;;;5.40;70.96;98403.95;2065173;84;29914;-72
2021/01/22 05:40:13;;;;;;;12.23;6.65;;;;;;;5.42;70.93;98407.37;2067422;84;31084;-72
2021/01/22 05:43:16;;;;;;;12.80;6.53;;;;;;;5.45;70.99;98406.71;2096715;84;33106;-72
2021/01/22 05:46:23;;;;;;;12.95;6.62;;;;;;;5.48;71.04;98394.58;2097440;84;29162;-71
2021/01/22 05:49:25;;;;;;;12.33;7.05;;;;;;;5.50;71.13;98397.62;2096241;84;27742;-72
2021/01/22 05:52:30;;;;;;;11.85;6.72;;;;;;;5.51;71.09;98385.56;2097192;84;28846;-71
2021/01/22 05:55:32;;;;;;;;;;;;;;;5.52;71.16;98391.27;2099933;84;32450;-71
2021/01/22 05:58:37;;;;;;;12.85;7.00;;;;;;;5.51;71.17;98398.01;2079655;84;33118;-70
2021/01/22 06:01:38;;;;;;;12.15;7.25;;;;;;;5.51;71.14;98408.63;2071140;84;30532;-71
2021/01/22 06:04:42;;;;;;;13.62;7.37;;;;;;;5.51;71.14;98412.61;2082473;84;27647;-72
2021/01/22 06:07:46;;;;;;;11.03;6.47;;;;;;;5.53;71.12;98408.07;2041250;84;28846;-72
2021/01/22 06:10:49;;;;;;;14.80;6.80;;;;;;;5.53;71.10;98414.22;2062767;86;31210;-72
2021/01/22 06:13:57;;;;;;;15.90;7.50;;;;;;;5.56;71.10;98414.05;2042062;84;33118;-72
2021/01/22 06:17:04;;;;;;;16.60;8.45;;;;;;;5.60;71.04;98420.02;2097397;84;29174;-72
2021/01/22 06:20:08;;;;;;;16.12;8.13;;;;;;;5.66;71.02;98418.80;2112369;83;27679;-72
2021/01/22 06:23:13;;;;;;;21.05;8.55;;;;;;;5.74;71.00;98417.39;2122046;83;29736;-72
2021/01/22 06:26:15;;;;;;;22.15;8.83;;;;;;;5.74;71.00;98417.39;2122092;83;31140;-72
2021/01/22 06:29:18;;;;;;;19.48;9.05;;;;;;;5.78;70.87;98415.42;2095595;83;34206;-70
2021/01/22 06:32:20;;;;;;;17.95;9.05;;;;;;;5.78;70.82;98408.78;2086934;83;28453;-71
2021/01/22 06:35:23;;;;;;;19.75;9.25;;;;;;;5.78;70.82;98411.44;2120718;82;27655;-70
2021/01/22 06:38:26;;;;;;;20.08;9.68;;;;;;;5.78;70.81;98425.56;2120966;83;29900;-71
2021/01/22 06:41:29;;;;;;;18.30;9.60;;;;;;;5.79;70.72;98437.06;2121803;83;31182;-71
2021/01/22 06:44:31;;;;;;;16.50;8.65;;;;;;;5.79;70.74;98429.09;2121789;83;32986;-71
2021/01/22 06:47:34;;;;;;;15.90;9.58;;;;;;;5.78;70.70;98427.38;2120864;83;30152;-70
2021/01/22 06:50:37;;;;;;;17.27;10.03;;;;;;;5.74;70.72;98422.70;2121859;83;27858;-72
2021/01/22 06:54:20;;;;;;;15.88;9.30;;;;;;;5.73;70.73;98420.15;2121801;83;28933;-69
2021/01/22 06:57:21;;;;;;;18.62;8.25;;;;;;;5.70;70.80;98413.23;2110837;83;31148;-72
2021/01/22 07:00:37;;;;;;;20.52;8.68;;;;;;;5.72;70.75;98427.25;2088424;83;34037;-72
2021/01/22 07:03:47;;;;;;;23.80;9.68;;;;;;;5.76;70.74;98442.55;2107973;83;29254;-73
2021/01/22 07:06:51;;;;;;;19.98;9.33;;;;;;;5.82;70.75;98436.01;2118989;82;27681;-72
2021/01/22 07:09:53;;;;;;;20.95;9.60;;;;;;;5.86;70.64;98413.63;2118644;83;28892;-71
2021/01/22 07:12:55;;;;;;;26.20;10.08;;;;;;;5.86;70.62;98403.84;2101031;82;31143;-71
2021/01/22 07:16:01;;;;;;;40.05;12.28;;;;;;;5.87;70.61;98394.08;2090610;82;34047;-72
2021/01/22 07:19:04;;;;;;;37.67;10.63;;;;;;;5.88;70.65;98422.33;2112187;83;30058;-72
2021/01/22 07:22:09;;;;;;;27.02;9.93;;;;;;;5.91;70.60;98391.13;2111258;84;27701;-72
2021/01/22 07:25:11;;;;;;;24.37;8.70;;;;;;;5.95;70.60;98408.22;2084388;84;28837;-71
2021/01/22 07:28:21;;;;;;;24.32;8.93;;;;;;;5.99;70.62;98413.70;2096865;84;32051;-72
2021/01/22 07:31:52;;;;;;;20.68;8.90;;;;;;;6.02;70.54;98403.80;2103981;84;33627;-72
2021/01/22 07:34:55;;;;;;;24.77;10.15;;;;;;;6.04;70.45;98406.34;2076651;84;29158;-71
2021/01/22 07:37:59;;;;;;;18.48;9.50;;;;;;;6.07;70.42;98399.52;2058070;84;27818;-71
2021/01/22 07:41:01;;;;;;;19.50;9.50;;;;;;;6.10;70.44;98405.11;2087611;84;28979;-72
2021/01/22 07:44:05;;;;;;;19.35;8.70;;;;;;;6.16;70.36;98401.59;2110117;84;31202;-71
2021/01/22 07:47:10;;;;;;;23.45;10.28;;;;;;;6.24;70.35;98413.08;2098111;84;34365;-70
2021/01/22 07:50:14;;;;;;;;;;;;;;;6.32;70.28;98413.93;2087161;84;29178;-71
2021/01/22 07:53:16;;;;;;;25.65;11.08;;;;;;;6.42;70.28;98408.43;2096350;84;27660;-69
2021/01/22 07:56:18;;;;;;;23.42;11.05;;;;;;;6.48;70.11;98415.16;2072495;85;28852;-71
2021/01/22 07:59:21;;;;;;;26.60;11.35;;;;;;;6.51;69.91;98403.84;2076808;84;31269;-71
2021/01/22 08:02:24;;;;;;;24.27;12.82;;;;;;;6.54;69.85;98408.97;2076691;84;34035;-73
2021/01/22 08:05:31;;;;;;;27.00;10.70;;;;;;;6.56;69.76;98406.69;2076230;84;29160;-74
2021/01/22 08:08:33;;;;;;;19.07;9.70;;;;;;;6.55;69.57;98391.19;2097766;84;28101;-72
2021/01/22 08:11:36;;;;;;;15.65;8.55;;;;;;;6.56;69.42;98368.12;2091284;84;28874;-72
2021/01/22 08:14:38;;;;;;;20.40;9.05;;;;;;;6.58;69.35;98359.56;2083704;84;31671;-70
2021/01/22 08:17:45;;;;;;;17.55;7.42;;;;;;;6.61;69.27;98378.83;2104904;84;34038;-76
2021/01/22 08:20:51;;;;;;;15.98;7.33;;;;;;;6.66;69.28;98375.41;2105828;83;29172;-70
2021/01/22 08:23:53;;;;;;;18.82;8.90;;;;;;;6.73;69.18;98363.89;2121053;83;27690;-71
2021/01/22 08:27:04;;;;;;;17.12;7.78;;;;;;;6.79;69.06;98374.11;2120773;83;29923;-71
2021/01/22 08:30:08;;;;;;;17.52;8.00;;;;;;;6.84;68.91;98381.33;2120022;83;32151;-72
2021/01/22 08:33:12;;;;;;;16.97;8.63;;;;;;;6.89;68.80;98381.02;2087016;83;29100;-71
2021/01/22 08:36:14;;;;;;;18.05;7.67;;;;;;;6.96;68.69;98377.47;2086194;84;29177;-71
2021/01/22 08:39:17;;;;;;;19.15;8.98;;;;;;;7.02;68.56;98383.73;2086179;83;27717;-72
2021/01/22 08:42:21;;;;;;;20.12;8.98;;;;;;;7.08;68.55;98379.81;2099955;83;29799;-71
2021/01/22 08:45:23;;;;;;;38.48;18.77;;;;;;;7.14;68.52;98386.07;2070130;85;31171;-72
2021/01/22 08:48:30;;;;;;;128.97;82.75;;;;;;;7.17;68.28;98380.55;2086222;84;28965;-70
2021/01/22 08:51:37;;;;;;;24.02;9.43;;;;;;;7.20;68.29;98389.64;2087117;83;29048;-70
2021/01/22 08:54:37;;;;;;;21.50;10.13;;;;;;;7.23;68.36;98388.59;2086285;84;27603;-69
2021/01/22 08:57:45;;;;;;;20.52;9.68;;;;;;;7.25;68.08;98390.19;2086464;84;28957;-71
2021/01/22 09:00:52;;;;;;;23.05;9.98;;;;;;;7.26;67.91;98391.06;2069435;84;31169;-69
2021/01/22 09:03:54;;;;;;;25.92;11.73;;;;;;;7.27;67.83;98378.13;2114753;83;35367;-70
2021/01/22 09:07:05;;;;;;;19.00;9.73;;;;;;;7.26;67.84;98367.93;2087453;83;29278;-70
2021/01/22 09:10:29;;;;;;;26.95;11.10;;;;;;;7.27;67.62;98382.95;2087808;83;27781;-71
2021/01/22 09:13:31;;;;;;;30.27;12.37;;;;;;;7.29;67.82;98386.38;2114642;83;28838;-70
2021/01/22 09:16:46;;;;;;;30.43;11.35;;;;;;;7.37;67.80;98392.98;2099613;82;31258;-69
2021/01/22 09:19:58;;;;;;;27.77;12.18;;;;;;;7.44;67.75;98392.49;2105038;83;34343;-70
2021/01/22 09:23:06;;;;;;;24.77;12.30;;;;;;;7.55;67.65;98394.89;2121951;83;29166;-72
2021/01/22 09:26:08;;;;;;;25.72;12.75;;;;;;;7.63;67.32;98392.55;2122004;82;27654;-71
2021/01/22 09:29:11;;;;;;;26.73;11.75;;;;;;;7.69;67.33;98388.63;2119811;83;28835;-74
2021/01/22 09:32:14;;;;;;;31.15;16.32;;;;;;;7.78;67.39;98393.81;2106040;83;32080;-72
2021/01/22 09:35:19;;;;;;;39.42;21.12;;;;;;;7.84;67.31;98402.23;2086383;84;34061;-73
2021/01/22 09:38:21;;;;;;;;;;;;;;;7.90;67.09;98416.45;2094037;83;29162;-75
2021/01/22 09:41:23;;;;;;;44.40;29.63;;;;;;;7.98;67.13;98416.41;2120042;82;27793;-72
2021/01/22 09:44:26;;;;;;;32.03;15.68;;;;;;;8.05;67.10;98425.67;2093516;83;30219;-71
2021/01/22 09:47:28;;;;;;;75.37;56.50;;;;;;;8.14;67.06;98420.18;2086335;85;31301;-72
2021/01/22 09:50:31;;;;;;;44.00;25.55;;;;;;;8.24;67.06;98423.92;2094125;83;33133;-73
2021/01/22 09:53:33;;;;;;;54.00;36.48;;;;;;;8.32;66.94;98420.22;2120758;83;29165;-69
2021/01/22 09:56:37;;;;;;;33.48;18.95;;;;;;;8.42;66.74;98427.09;2121696;83;27748;-70
2021/01/22 09:59:40;;;;;;;26.42;13.60;;;;;;;8.49;66.40;98416.40;2121085;83;28847;-69
2021/01/22 10:02:43;;;;;;;33.80;13.50;;;;;;;8.53;66.17;98412.15;2120755;83;31189;-69
2021/01/22 10:05:45;;;;;;;24.60;11.50;;;;;;;8.53;66.04;98395.67;2092999;82;33219;-70
2021/01/22 10:08:49;;;;;;;37.35;12.55;;;;;;;8.55;65.73;98391.08;2095026;83;29065;-71
2021/01/22 10:11:51;;;;;;;30.25;11.43;;;;;;;8.57;65.86;98392.30;2099031;83;28529;-70
2021/01/22 10:14:53;;;;;;;22.87;10.13;;;;;;;8.60;65.81;98381.41;2082353;84;28884;-69
2021/01/22 10:17:55;;;;;;;26.57;11.03;;;;;;;8.62;65.57;98373.64;2103951;84;31152;-70
2021/01/22 10:20:58;;;;;;;27.17;11.60;;;;;;;8.63;65.54;98366.01;2106591;82;33070;-74
2021/01/22 10:24:00;;;;;;;23.70;10.53;;;;;;;8.66;65.45;98365.78;2082552;84;30115;-71
2021/01/22 10:27:02;;;;;;;25.43;11.60;;;;;;;8.72;65.30;98353.80;2075129;84;28160;-72
2021/01/22 10:30:06;;;;;;;28.23;14.47;;;;;;;8.78;65.39;98359.17;2057328;85;28916;-69
2021/01/22 10:33:08;;;;;;;28.30;12.00;;;;;;;8.87;65.28;98362.52;2073595;84;31147;-68
2021/01/22 10:36:10;;;;;;;21.25;11.33;;;;;;;8.97;65.21;98353.34;2089877;84;33133;-72
2021/01/22 10:39:12;;;;;;;30.02;15.13;;;;;;;9.06;65.10;98355.80;2104442;84;29234;-71
2021/01/22 10:42:16;;;;;;;30.23;15.72;;;;;;;9.13;64.90;98361.04;2082875;85;27655;-69
2021/01/22 10:45:18;;;;;;;30.17;11.22;;;;;;;9.21;64.69;98368.47;2082622;84;28837;-71
2021/01/22 10:48:21;;;;;;;34.23;15.75;;;;;;;9.27;64.65;98365.35;2082552;84;31144;-68
2021/01/22 10:51:23;;;;;;;35.90;17.17;;;;;;;9.35;64.99;98357.59;2083393;84;34060;-65
2021/01/22 10:54:28;;;;;;;22.32;11.15;;;;;;;9.45;64.70;98352.89;2082693;84;30045;-67
2021/01/22 10:57:29;;;;;;;29.12;11.00;;;;;;;9.49;64.55;98341.84;2113217;84;27698;-65
2021/01/22 11:00:33;;;;;;;27.98;12.37;;;;;;;9.56;64.33;98340.41;2099502;84;28832;-62
2021/01/22 11:03:35;;;;;;;32.55;14.00;;;;;;;9.61;64.30;98344.06;2086203;84;31122;-69
2021/01/22 11:06:37;;;;;;;21.42;10.78;;;;;;;9.68;64.24;98346.61;2083236;84;33113;-68
2021/01/22 11:09:39;;;;;;;23.70;10.45;;;;;;;9.75;64.02;98340.80;2087485;84;30322;-68
2021/01/22 11:12:41;;;;;;;22.27;8.73;;;;;;;9.86;63.96;98338.13;2116600;84;28238;-72
2021/01/22 11:15:43;;;;;;;17.90;9.80;;;;;;;9.99;63.76;98337.55;2117517;84;28636;-73
2021/01/22 11:18:45;;;;;;;16.55;8.60;;;;;;;10.16;63.98;98330.84;2115904;84;31144;-72
2021/01/22 11:21:47;;;;;;;20.65;8.30;;;;;;;10.32;63.17;98326.46;2111278;83;33835;-64
2021/01/22 11:24:50;;;;;;;20.65;8.10;;;;;;;10.46;63.09;98328.54;2108219;84;29158;-65
2021/01/22 11:27:52;;;;;;;19.07;9.85;;;;;;;10.58;63.32;98318.16;2108913;83;27738;-65
2021/01/22 11:30:55;;;;;;;23.27;9.25;;;;;;;10.67;62.56;98316.55;2110474;83;28909;-64
2021/01/22 11:33:57;;;;;;;18.15;8.78;;;;;;;10.74;62.25;98315.09;2113233;83;33477;-65
2021/01/22 11:37:00;;;;;;;19.80;8.10;;;;;;;10.76;62.09;98308.25;2132402;83;34123;-67
2021/01/22 11:40:04;;;;;;;13.60;6.83;;;;;;;10.80;62.05;98307.03;2107402;84;29152;-65
2021/01/22 11:43:07;;;;;;;9.70;4.53;;;;;;;10.84;62.02;98308.45;2108873;83;36801;-64
2021/01/22 11:46:10;;;;;;;13.80;6.85;;;;;;;10.87;61.78;98304.19;2112762;83;29025;-64
2021/01/22 11:49:15;;;;;;;14.05;6.08;;;;;;;10.92;61.91;98294.45;2108388;84;27660;-65
2021/01/22 11:52:17;;;;;;;19.23;8.90;;;;;;;10.98;61.61;98286.37;2127308;83;33202;-67
2021/01/22 11:55:19;;;;;;;19.75;9.18;;;;;;;11.03;61.29;98285.01;2111063;83;29176;-65
2021/01/22 11:58:22;;;;;;;16.60;8.55;;;;;;;11.07;61.62;98283.78;2115501;83;27681;-66
2021/01/22 12:01:25;;;;;;;9.80;5.95;;;;;;;11.13;61.55;98272.16;2130201;83;29318;-65
2021/01/22 12:04:28;;;;;;;13.43;7.05;;;;;;;11.18;60.83;98273.97;2126641;83;31150;-65
2021/01/22 12:07:30;;;;;;;15.80;7.65;;;;;;;11.23;61.31;98271.25;2117869;83;33996;-66
2021/01/22 12:10:33;;;;;;;12.82;8.45;;;;;;;11.28;61.37;98266.83;2127265;83;29631;-64
2021/01/22 12:13:35;;;;;;;13.43;6.00;;;;;;;11.36;60.76;98268.86;2132305;83;27684;-65
2021/01/22 12:16:37;;;;;;;10.68;4.55;;;;;;;11.41;60.64;98267.98;2121139;82;28664;-65
2021/01/22 12:19:39;;;;;;;9.65;6.45;;;;;;;11.45;60.34;98245.77;2109916;82;31145;-66
2021/01/22 12:22:41;;;;;;;15.15;6.78;;;;;;;11.52;60.29;98234.88;2095217;84;34164;-66
2021/01/22 12:25:46;;;;;;;14.13;7.62;;;;;;;11.57;60.23;98237.16;2115563;84;29172;-66
2021/01/22 12:28:49;;;;;;;29.05;13.90;;;;;;;11.61;60.25;98252.00;2118198;83;27761;-69
2021/01/22 12:31:51;;;;;;;56.05;31.02;;;;;;;11.64;60.02;98246.38;2110302;83;28821;-64
2021/01/22 12:34:55;;;;;;;41.18;23.30;;;;;;;11.67;59.59;98234.01;2100225;84;32108;-68
2021/01/22 12:37:58;;;;;;;28.60;16.90;;;;;;;11.69;59.62;98222.19;2094590;84;33321;-67
2021/01/22 12:41:01;;;;;;;17.00;7.87;;;;;;;11.73;59.52;98226.78;2116437;84;29225;-68
2021/01/22 12:44:04;;;;;;;10.53;5.47;;;;;;;11.76;59.08;98219.80;2117817;83;27715;-66
2021/01/22 12:47:06;;;;;;;14.60;8.40;;;;;;;11.78;59.07;98223.69;2117796;84;30250;-66
2021/01/22 12:50:11;;;;;;;12.73;6.90;;;;;;;11.81;59.05;98232.81;2113363;84;32237;-65
2021/01/22 12:53:13;;;;;;;10.78;5.50;;;;;;;11.81;57.95;98230.98;2082890;84;33992;-65
2021/01/22 12:56:15;;;;;;;9.48;5.12;;;;;;;11.79;58.66;98231.61;2082669;85;30130;-65
2021/01/22 12:59:17;;;;;;;11.70;7.17;;;;;;;11.79;58.31;98220.88;2087562;84;27803;-65
2021/01/22 13:02:19;;;;;;;11.08;4.35;;;;;;;11.80;58.64;98227.08;2098376;84;28823;-65
2021/01/22 13:05:25;;;;;;;8.23;3.50;;;;;;;11.81;58.65;98232.81;2111352;84;31324;-66
2021/01/22 13:08:26;;;;;;;9.67;4.37;;;;;;;11.80;58.74;98241.36;2096706;83;33149;-66
2021/01/22 13:11:29;;;;;;;11.03;4.30;;;;;;;11.80;58.24;98234.66;2117351;83;29164;-65
2021/01/22 13:14:37;;;;;;;14.13;7.67;;;;;;;11.85;58.49;98249.83;2116737;83;27754;-67
2021/01/22 13:17:38;;;;;;;13.38;4.17;;;;;;;11.84;58.35;98245.45;2083200;83;28819;-62
2021/01/22 13:20:40;;;;;;;4.95;3.37;;;;;;;11.86;58.52;98248.85;2086671;84;31141;-66
2021/01/22 13:23:42;;;;;;;9.55;3.98;;;;;;;11.85;58.36;98255.20;2081792;85;33522;-64
2021/01/22 13:26:46;;;;;;;6.90;3.12;;;;;;;11.84;58.33;98252.16;2081961;84;30102;-65
2021/01/22 13:29:47;;;;;;;6.62;3.35;;;;;;;11.83;58.49;98255.82;2099660;84;28107;-66
2021/01/22 13:32:50;;;;;;;6.17;3.08;;;;;;;11.81;58.60;98248.91;2100050;84;29259;-65
2021/01/22 13:35:52;;;;;;;7.30;3.67;;;;;;;11.78;58.06;98251.38;2080699;84;30219;-65
2021/01/22 13:38:56;;;;;;;6.87;3.37;;;;;;;11.79;58.73;98249.53;2066626;85;33568;-63
2021/01/22 13:41:57;;;;;;;4.78;3.47;;;;;;;11.77;58.75;98251.49;2065369;84;29205;-65
2021/01/22 13:45:00;;;;;;;12.30;7.35;;;;;;;11.74;58.68;98259.83;2067803;86;28164;-67
2021/01/22 13:48:05;;;;;;;9.05;3.90;;;;;;;11.70;58.78;98265.94;2072147;84;28829;-66
2021/01/22 13:51:07;;;;;;;;;;;;;;;11.65;58.89;98274.89;2095015;84;31148;-69
2021/01/22 13:54:09;;;;;;;14.15;9.43;;;;;;;11.60;58.92;98274.44;2101313;84;33246;-66
2021/01/22 13:57:11;;;;;;;13.53;7.55;;;;;;;11.54;58.99;98282.02;2102078;84;29171;-65
2021/01/22 14:00:15;;;;;;;18.20;9.95;;;;;;;11.51;59.01;98281.45;2081380;84;27720;-65
2021/01/22 14:03:17;;;;;;;17.07;9.75;;;;;;;11.48;58.91;98283.05;2072712;84;28770;-66
2021/01/22 14:06:20;;;;;;;10.75;5.33;;;;;;;11.44;59.07;98274.90;2082662;84;32334;-69
2021/01/22 14:09:23;;;;;;;17.30;5.92;;;;;;;11.40;58.99;98275.19;2067429;84;33115;-67
2021/01/22 14:12:25;;;;;;;8.13;5.30;;;;;;;11.35;58.84;98270.70;2084356;83;29142;-64
2021/01/22 14:15:30;;;;;;;11.65;5.55;;;;;;;11.30;59.09;98268.89;2076382;84;27880;-67
2021/01/22 14:18:32;;;;;;;10.95;5.50;;;;;;;11.23;58.93;98271.25;2063848;84;28459;-65
2021/01/22 14:21:35;;;;;;;7.30;4.35;;;;;;;11.16;59.07;98259.84;2075016;84;31123;-63
2021/01/22 14:24:36;;;;;;;7.58;4.17;;;;;;;11.08;58.90;98260.50;2054590;85;34497;-62